Time;durP1;ratioP1;P1;durP2;ratioP2;P2;SDS_P1;SDS_P2;PMS_P1;PMS_P2;Temp;Humidity;BMP_temperature;BMP_pressure;BME280_temperature;BME280_humidity;BME280_pressure;Samples;Min_cycle;Max_cycle;Signal;HPM_P1;HPM_P2
2022/05/02 00:00:20;;;;;;;12.18;9.00;;;;;;;8.65;86.71;100871.06;6312675;22;20011;-73
2022/05/02 00:02:49;;;;;;;10.95;8.15;;;;;;;8.61;86.24;100859.78;6286187;22;20006;-73
2022/05/02 00:05:14;;;;;;;11.43;7.85;;;;;;;8.62;86.77;100871.53;6285244;22;20010;-73
2022/05/02 00:07:42;;;;;;;13.13;9.52;;;;;;;8.70;87.00;100884.78;6313442;22;20011;-75
2022/05/02 00:10:09;;;;;;;15.93;10.02;;;;;;;8.70;87.41;100874.72;6282843;22;20011;-74
2022/05/02 00:12:44;;;;;;;12.45;8.55;;;;;;;8.88;87.77;100902.88;6256847;22;20007;-73
2022/05/02 00:15:13;;;;;;;13.00;8.38;;;;;;;8.81;87.71;100886.63;6256344;22;20007;-73
2022/05/02 00:17:57;;;;;;;18.00;10.27;;;;;;;8.93;87.15;100893.97;6232998;22;20037;-75
2022/05/02 00:20:35;;;;;;;12.93;8.93;;;;;;;8.86;87.11;100884.03;6313367;22;20010;-74
2022/05/02 00:23:04;;;;;;;12.48;8.15;;;;;;;8.92;87.05;100893.09;6312097;22;20248;-73
2022/05/02 00:25:30;;;;;;;11.35;8.90;;;;;;;8.91;87.29;100892.28;6310299;22;20014;-73
2022/05/02 00:27:58;;;;;;;9.82;7.43;;;;;;;8.79;87.44;100871.59;6284923;22;20117;-74
2022/05/02 00:30:24;;;;;;;13.18;8.75;;;;;;;8.83;87.49;100879.03;6283978;22;20052;-73
2022/05/02 00:32:50;;;;;;;13.27;8.77;;;;;;;8.85;87.55;100885.09;6258466;22;20033;-72
2022/05/02 00:35:16;;;;;;;11.65;8.48;;;;;;;8.86;88.01;100886.75;6283654;22;20007;-72
2022/05/02 00:37:44;;;;;;;13.90;9.18;;;;;;;8.87;87.69;100888.38;6282905;22;20381;-71
2022/05/02 00:40:12;;;;;;;11.23;8.25;;;;;;;8.81;87.75;100880.38;6305494;22;20011;-72
2022/05/02 00:42:38;;;;;;;16.15;9.70;;;;;;;8.88;87.87;100887.31;6307813;22;20003;-71
2022/05/02 00:45:06;;;;;;;13.60;9.57;;;;;;;8.89;87.78;100889.00;6307542;22;20457;-72
2022/05/02 00:47:32;;;;;;;14.20;8.40;;;;;;;8.84;87.74;100880.69;6256861;22;20015;-73
2022/05/02 00:49:57;;;;;;;14.90;9.43;;;;;;;8.92;88.02;100882.19;6307266;22;20011;-74
2022/05/02 00:52:23;;;;;;;16.20;10.32;;;;;;;8.91;87.46;100889.56;6310730;22;20034;-75
2022/05/02 00:54:48;;;;;;;14.20;10.00;;;;;;;8.89;87.69;100878.09;6313791;22;20007;-74
2022/05/02 00:57:16;;;;;;;15.00;9.68;;;;;;;8.80;87.90;100868.63;6284719;22;20015;-74
2022/05/02 00:59:42;;;;;;;12.88;9.20;;;;;;;8.85;87.92;100876.91;6324646;22;20014;-73
2022/05/02 01:02:12;;;;;;;11.68;8.38;;;;;;;8.86;87.91;100878.56;6300858;22;20038;-72
2022/05/02 01:04:38;;;;;;;15.13;10.27;;;;;;;8.87;87.99;100877.47;6329421;22;20079;-72
2022/05/02 01:07:19;;;;;;;16.50;10.00;;;;;;;8.80;87.20;100871.34;6318472;22;20061;-73
2022/05/02 01:09:47;;;;;;;15.60;9.63;;;;;;;8.82;88.11;100876.56;6312587;22;20011;-74
2022/05/02 01:12:24;;;;;;;14.48;9.95;;;;;;;8.80;88.01;100875.97;6312754;22;20003;-73
2022/05/02 01:14:57;;;;;;;16.35;11.05;;;;;;;8.78;87.46;100870.78;6315066;22;20003;-73
2022/05/02 01:17:23;;;;;;;12.90;8.80;;;;;;;8.77;88.15;100874.56;6309370;22;19999;-73
2022/05/02 01:19:50;;;;;;;13.10;8.57;;;;;;;8.73;87.53;100867.94;6310848;22;20080;-74
2022/05/02 01:22:16;;;;;;;14.50;9.90;;;;;;;8.73;88.31;100867.94;6278815;22;20033;-74
2022/05/02 01:24:44;;;;;;;10.90;8.65;;;;;;;8.70;87.78;100865.69;6285329;22;20015;-74
2022/05/02 01:27:11;;;;;;;13.45;9.25;;;;;;;8.67;87.97;100853.41;6282435;22;20072;-74
2022/05/02 01:29:38;;;;;;;17.30;8.98;;;;;;;8.65;88.01;100854.69;6283039;22;20011;-74
2022/05/02 01:32:06;;;;;;;13.23;9.10;;;;;;;8.64;88.63;100847.59;6281587;22;20802;-74
2022/05/02 01:34:33;;;;;;;14.13;8.38;;;;;;;8.76;88.46;100872.94;6311765;22;20418;-74
2022/05/02 01:37:00;;;;;;;11.60;7.97;;;;;;;8.77;88.19;100863.66;6309649;22;20193;-74
2022/05/02 01:39:25;;;;;;;13.75;9.27;;;;;;;8.78;88.30;100868.03;6284432;22;19995;-75
2022/05/02 01:41:51;;;;;;;13.43;8.98;;;;;;;8.78;88.00;100875.41;6258917;22;20007;-74
2022/05/02 01:44:16;;;;;;;13.00;8.65;;;;;;;8.72;88.07;100850.75;6284823;22;20068;-73
2022/05/02 01:46:42;;;;;;;12.50;9.25;;;;;;;8.73;88.18;100862.47;6326877;22;20003;-71
2022/05/02 01:49:07;;;;;;;13.50;9.57;;;;;;;8.77;87.94;100858.19;6326107;22;19988;-75
2022/05/02 01:51:33;;;;;;;11.80;9.48;;;;;;;8.74;87.79;100864.13;6326540;22;20009;-75
2022/05/02 01:53:59;;;;;;;12.05;8.15;;;;;;;8.72;87.73;100867.09;6314565;22;20411;-76
2022/05/02 01:56:24;;;;;;;10.35;7.78;;;;;;;8.80;87.42;100863.16;6309521;22;20011;-75
2022/05/02 01:58:49;;;;;;;11.45;7.93;;;;;;;8.82;88.15;100861.03;6263185;22;20020;-70
2022/05/02 02:01:15;;;;;;;10.77;7.97;;;;;;;8.88;87.48;100865.50;6244460;23;20004;-70
2022/05/02 02:03:40;;;;;;;9.70;7.50;;;;;;;8.90;87.27;100863.34;6219900;23;20008;-69
2022/05/02 02:06:06;;;;;;;11.73;7.90;;;;;;;8.90;87.22;100863.34;6245649;22;20035;-70
2022/05/02 02:08:33;;;;;;;8.63;6.80;;;;;;;8.98;86.71;100866.75;6244472;23;20494;-70
2022/05/02 02:11:01;;;;;;;8.68;6.60;;;;;;;9.02;86.72;100865.19;6241651;22;20007;-69
2022/05/02 02:13:27;;;;;;;8.10;5.95;;;;;;;9.05;86.73;100870.16;6269493;22;20015;-69
2022/05/02 02:15:53;;;;;;;9.25;6.53;;;;;;;9.10;87.03;100870.28;6244286;22;20015;-69
2022/05/02 02:18:18;;;;;;;6.78;5.18;;;;;;;9.13;86.52;100871.69;6240556;23;20224;-70
2022/05/02 02:20:46;;;;;;;8.35;6.43;;;;;;;9.19;86.22;100871.50;6217000;23;20032;-68
2022/05/02 02:23:14;;;;;;;7.05;5.50;;;;;;;9.21;86.31;100858.47;6270241;22;20007;-69
2022/05/02 02:25:40;;;;;;;8.77;6.50;;;;;;;9.23;85.84;100861.78;6242554;22;20004;-69
2022/05/02 02:28:06;;;;;;;8.88;5.93;;;;;;;9.24;86.44;100863.44;6268252;22;20000;-67
2022/05/02 02:30:32;;;;;;;10.60;7.30;;;;;;;9.21;85.76;100858.47;6243161;23;20012;-70
2022/05/02 02:32:59;;;;;;;9.13;7.65;;;;;;;9.25;85.80;100861.53;6217242;23;20323;-68
2022/05/02 02:35:25;;;;;;;10.45;7.85;;;;;;;9.19;85.81;100857.88;6241211;22;20004;-70
2022/05/02 02:37:50;;;;;;;14.65;8.90;;;;;;;9.19;85.41;100862.50;6245821;22;20415;-70
2022/05/02 02:40:16;;;;;;;11.63;7.88;;;;;;;9.18;85.51;100861.66;6243160;23;20054;-70
2022/05/02 02:42:42;;;;;;;11.93;7.30;;;;;;;9.16;85.35;100863.81;6244936;23;19988;-70
2022/05/02 02:45:08;;;;;;;11.07;7.35;;;;;;;9.16;85.41;100857.56;6242910;23;20078;-70
2022/05/02 02:47:33;;;;;;;14.18;8.02;;;;;;;9.19;85.77;100855.16;6245931;23;20539;-69
2022/05/02 02:49:59;;;;;;;11.10;7.85;;;;;;;9.19;86.02;100866.06;6271196;22;20070;-69
2022/05/02 02:52:24;;;;;;;11.15;7.68;;;;;;;9.18;85.79;100856.22;6245362;23;20066;-72
2022/05/02 02:54:52;;;;;;;13.45;9.05;;;;;;;9.16;85.57;100846.63;6284761;22;20030;-74
2022/05/02 02:57:18;;;;;;;10.25;8.30;;;;;;;9.16;85.07;100852.91;6230569;23;20012;-73
2022/05/02 02:59:44;;;;;;;10.93;8.32;;;;;;;9.11;85.75;100846.53;6299932;22;20015;-71
2022/05/02 03:02:13;;;;;;;11.25;8.65;;;;;;;9.12;85.66;100854.47;6305639;22;20015;-73
2022/05/02 03:07:25;;;;;;;9.98;7.72;;;;;;;9.07;85.75;100840.75;6309506;22;20018;-73
2022/05/02 03:09:51;;;;;;;9.60;7.88;;;;;;;9.07;85.55;100840.75;6309181;22;20003;-74
2022/05/02 03:12:17;;;;;;;8.65;7.05;;;;;;;9.09;85.87;100841.31;6309309;22;20409;-73
2022/05/02 03:14:42;;;;;;;6.90;6.20;;;;;;;9.12;85.70;100849.00;6282607;22;20302;-73
2022/05/02 03:17:08;;;;;;;9.27;7.10;;;;;;;9.15;85.74;100836.78;6283271;22;20017;-76
2022/05/02 03:19:33;;;;;;;9.82;7.13;;;;;;;9.17;85.92;100840.94;6311047;22;20014;-75
2022/05/02 03:21:59;;;;;;;9.43;6.95;;;;;;;9.19;85.98;100844.22;6312460;22;20007;-72
2022/05/02 03:24:24;;;;;;;9.98;7.35;;;;;;;9.21;85.51;100844.84;6255452;22;20409;-72
2022/05/02 03:26:50;;;;;;;13.98;8.07;;;;;;;9.18;85.46;100837.13;6306456;22;20015;-73
2022/05/02 03:29:15;;;;;;;9.27;6.97;;;;;;;9.14;85.80;100819.59;6256856;22;20018;-71
2022/05/02 03:31:41;;;;;;;8.88;6.50;;;;;;;9.25;85.41;100837.78;6281885;22;20805;-72
2022/05/02 03:34:06;;;;;;;9.75;7.05;;;;;;;9.24;85.72;100841.59;6309413;22;20007;-74
2022/05/02 03:36:32;;;;;;;8.23;6.60;;;;;;;9.18;85.52;100833.56;6306713;22;20034;-73
2022/05/02 03:38:57;;;;;;;10.52;7.70;;;;;;;9.22;85.39;100837.47;6309446;22;20003;-73
2022/05/02 03:41:23;;;;;;;11.70;7.88;;;;;;;9.19;85.28;100838.78;6283526;22;20073;-74
2022/05/02 03:43:49;;;;;;;10.10;7.40;;;;;;;9.17;85.90;100842.81;6279709;22;20018;-74
2022/05/02 03:46:15;;;;;;;7.93;5.60;;;;;;;9.12;85.11;100831.84;6282877;22;20256;-74
2022/05/02 03:48:41;;;;;;;7.32;6.00;;;;;;;9.19;85.41;100838.78;6283084;22;20042;-74
2022/05/02 03:51:07;;;;;;;5.88;4.85;;;;;;;9.07;85.77;100818.94;6256531;22;20018;-73
2022/05/02 03:53:33;;;;;;;5.72;4.43;;;;;;;9.16;85.42;100822.91;6256707;22;20007;-72
2022/05/02 03:55:59;;;;;;;9.63;6.72;;;;;;;9.13;85.65;100817.94;6255472;22;20026;-72
2022/05/02 03:58:25;;;;;;;9.38;6.95;;;;;;;9.18;85.63;100831.66;6240572;23;20024;-71
2022/05/02 04:00:51;;;;;;;7.97;5.97;;;;;;;9.11;85.96;100819.25;6270736;22;20078;-73
2022/05/02 04:03:18;;;;;;;6.95;5.07;;;;;;;9.12;85.40;100820.91;6194857;23;20043;-74
2022/05/02 04:05:44;;;;;;;6.10;5.00;;;;;;;9.10;85.66;100821.16;6245562;23;20008;-72
2022/05/02 04:08:12;;;;;;;7.47;5.20;;;;;;;9.04;85.37;100814.78;6193419;23;20016;-73
2022/05/02 04:10:38;;;;;;;5.90;4.70;;;;;;;9.13;85.32;100823.41;6242969;23;20011;-73
2022/05/02 04:13:04;;;;;;;5.15;3.90;;;;;;;9.19;85.44;100833.31;6244652;23;20008;-73
2022/05/02 04:15:29;;;;;;;5.93;4.47;;;;;;;9.20;85.50;100832.25;6218019;23;20004;-72
2022/05/02 04:17:55;;;;;;;6.65;5.25;;;;;;;9.19;85.38;100827.84;6218320;23;20480;-73
2022/05/02 04:20:21;;;;;;;6.55;4.93;;;;;;;9.15;85.49;100821.22;6241621;23;20026;-73
2022/05/02 04:22:47;;;;;;;5.63;3.97;;;;;;;9.08;85.59;100809.66;6217312;23;20086;-74
2022/05/02 04:25:13;;;;;;;5.13;3.88;;;;;;;9.11;85.40;100817.34;6217955;23;20004;-73
2022/05/02 04:27:38;;;;;;;4.82;3.90;;;;;;;9.14;85.43;100825.06;6245762;23;20008;-73
2022/05/02 04:30:04;;;;;;;4.85;4.35;;;;;;;9.21;85.02;100836.66;6221922;23;20008;-72
2022/05/02 04:32:30;;;;;;;5.93;4.50;;;;;;;9.20;84.90;100829.53;6197422;23;20011;-73
2022/05/02 04:34:58;;;;;;;7.45;5.18;;;;;;;9.29;85.26;100831.81;6245454;23;20008;-74
2022/05/02 04:37:24;;;;;;;5.15;4.30;;;;;;;9.32;84.95;100834.91;6246273;23;20019;-73
2022/05/02 04:39:50;;;;;;;6.35;4.63;;;;;;;9.36;84.86;100836.06;6248545;22;20093;-74
2022/05/02 04:42:15;;;;;;;6.10;4.13;;;;;;;9.40;84.65;100839.13;6241574;23;20669;-73
2022/05/02 04:44:41;;;;;;;6.97;5.60;;;;;;;9.43;84.39;100835.88;6247643;23;20008;-73
2022/05/02 04:47:08;;;;;;;7.63;5.38;;;;;;;9.45;84.65;100839.22;6220858;23;20407;-72
2022/05/02 04:49:33;;;;;;;8.30;5.97;;;;;;;9.43;84.59;100827.69;6248063;23;20032;-73
2022/05/02 04:51:59;;;;;;;6.05;4.93;;;;;;;9.48;84.53;100833.25;6246141;23;20004;-73
2022/05/02 04:54:24;;;;;;;5.20;4.43;;;;;;;9.52;84.19;100845.34;6245297;23;20499;-73
2022/05/02 04:56:50;;;;;;;4.95;3.88;;;;;;;9.52;84.32;100842.59;6270636;22;20008;-73
2022/05/02 04:59:15;;;;;;;4.25;3.58;;;;;;;9.53;84.30;100838.78;6260403;22;20008;-74
2022/05/02 05:01:41;;;;;;;4.75;4.03;;;;;;;9.53;84.02;100844.22;6247009;23;20054;-72
2022/05/02 05:04:06;;;;;;;9.07;5.78;;;;;;;9.56;84.00;100851.09;6220084;23;20343;-75
2022/05/02 05:06:32;;;;;;;7.20;5.70;;;;;;;9.56;84.00;100843.75;6245426;23;20031;-76
2022/05/02 05:08:57;;;;;;;7.22;5.47;;;;;;;9.56;84.18;100846.50;6221507;23;20016;-73
2022/05/02 05:11:29;;;;;;;8.57;6.75;;;;;;;9.57;83.78;100848.13;6249263;23;20012;-72
2022/05/02 05:17:21;;;;;;;7.45;5.63;;;;;;;9.59;84.09;100843.25;6242637;23;20099;-74
2022/05/02 05:20:03;;;;;;;7.80;5.90;;;;;;;9.63;83.98;100843.56;6249755;22;20019;-72
2022/05/02 05:22:50;;;;;;;6.68;5.60;;;;;;;9.68;83.76;100853.75;6248500;22;20008;-73
2022/05/02 05:25:42;;;;;;;9.48;7.45;;;;;;;9.68;83.53;100851.00;6269769;22;20008;-74
2022/05/02 05:28:17;;;;;;;11.57;7.15;;;;;;;9.70;83.70;100859.81;6246715;22;20000;-74
2022/05/02 05:30:49;;;;;;;12.95;8.20;;;;;;;9.70;83.55;100865.25;6244676;23;20000;-73
2022/05/02 05:33:15;;;;;;;11.57;8.73;;;;;;;9.71;83.56;100861.44;6245324;22;20003;-74
2022/05/02 05:36:03;;;;;;;10.73;8.60;;;;;;;9.71;83.75;100864.16;6247864;23;20446;-72
2022/05/02 05:38:53;;;;;;;11.43;7.85;;;;;;;9.75;83.64;100851.69;6246232;23;19996;-72
2022/05/02 05:41:41;;;;;;;8.60;6.15;;;;;;;9.79;83.76;100863.75;6244588;23;20004;-72
2022/05/02 05:44:25;;;;;;;9.02;7.00;;;;;;;9.80;83.23;100865.41;6217801;23;20098;-72
2022/05/02 05:47:07;;;;;;;7.43;6.00;;;;;;;9.84;83.49;100861.13;6247845;22;20199;-73
2022/05/02 05:49:36;;;;;;;9.90;7.88;;;;;;;9.87;83.19;100866.06;6245879;22;20240;-73
2022/05/02 05:52:10;;;;;;;10.18;7.50;;;;;;;9.87;83.40;100860.63;6246122;23;20011;-72
2022/05/02 05:55:05;;;;;;;8.38;6.57;;;;;;;9.91;83.46;100869.94;6247694;23;20008;-73
2022/05/02 05:57:52;;;;;;;10.15;8.13;;;;;;;9.93;83.02;100866.97;6247362;22;20007;-73
2022/05/02 06:00:21;;;;;;;10.20;7.95;;;;;;;9.89;83.26;100852.16;6248627;23;20004;-73
2022/05/02 06:03:13;;;;;;;10.15;7.10;;;;;;;9.99;83.01;100867.84;6220314;23;20060;-73
2022/05/02 06:05:43;;;;;;;9.07;7.15;;;;;;;10.01;82.60;100869.25;6243080;23;20079;-73
2022/05/02 06:08:13;;;;;;;11.48;8.68;;;;;;;10.04;83.06;100870.69;6244286;22;20243;-74
2022/05/02 06:10:41;;;;;;;10.65;7.25;;;;;;;10.06;82.26;100868.50;6247135;22;19996;-73
2022/05/02 06:13:07;;;;;;;10.20;7.28;;;;;;;10.12;82.50;100873.00;6244658;22;20015;-72
2022/05/02 06:18:30;;;;;;;7.90;6.57;;;;;;;10.16;82.46;100873.28;6244381;23;19999;-72
2022/05/02 06:21:06;;;;;;;12.70;7.10;;;;;;;10.13;81.97;100874.63;6248737;22;20011;-72
2022/05/02 06:23:36;;;;;;;8.57;6.63;;;;;;;10.19;81.76;100875.53;6246019;23;20071;-74
2022/05/02 06:26:02;;;;;;;7.88;6.68;;;;;;;10.19;81.83;100881.84;6247154;23;20004;-72
2022/05/02 06:28:38;;;;;;;10.90;7.35;;;;;;;10.17;81.67;100867.56;6245932;23;20391;-74
2022/05/02 06:31:05;;;;;;;8.88;6.85;;;;;;;10.25;82.04;100877.25;6248566;22;20362;-71
2022/05/02 06:33:31;;;;;;;9.85;7.68;;;;;;;10.34;81.43;100880.38;6247101;22;20302;-73
2022/05/02 06:35:59;;;;;;;6.85;5.60;;;;;;;10.45;81.40;100887.66;6274370;22;20032;-75
2022/05/02 06:38:53;;;;;;;9.40;6.72;;;;;;;10.57;81.52;100885.63;6249972;23;20024;-74
2022/05/02 06:41:43;;;;;;;9.80;7.15;;;;;;;10.64;80.51;100880.81;6253938;23;20000;-75
2022/05/02 06:44:30;;;;;;;7.40;5.97;;;;;;;10.78;80.37;100869.47;6277859;22;20064;-75
2022/05/02 06:46:55;;;;;;;8.93;7.03;;;;;;;10.88;80.40;100880.50;6254439;22;20034;-72
2022/05/02 06:49:26;;;;;;;7.32;5.65;;;;;;;10.93;80.47;100885.22;6254475;23;20008;-76
2022/05/02 06:51:56;;;;;;;7.57;5.75;;;;;;;11.03;79.89;100892.72;6246811;23;20008;-73
2022/05/02 06:54:41;;;;;;;6.22;5.10;;;;;;;11.09;79.62;100897.16;6252151;22;20003;-72
2022/05/02 06:57:15;;;;;;;;;;;;;;;11.14;79.86;100895.28;6249463;23;20000;-73
2022/05/02 06:59:52;;;;;;;8.95;6.47;;;;;;;11.12;79.68;100899.38;6305543;22;19915;-72
2022/05/02 07:02:36;;;;;;;7.75;5.63;;;;;;;11.08;79.15;100890.00;6311820;22;19999;-71
2022/05/02 07:05:14;;;;;;;6.95;5.45;;;;;;;11.12;79.17;100902.09;6311663;22;19999;-74
2022/05/02 07:07:57;;;;;;;5.18;4.32;;;;;;;11.16;79.28;100903.25;6282076;22;20581;-73
2022/05/02 07:10:25;;;;;;;5.05;4.28;;;;;;;11.19;79.22;100902.72;6313220;22;20007;-73
2022/05/02 07:13:06;;;;;;;5.63;4.63;;;;;;;11.25;78.90;100901.69;6312452;22;20037;-73
2022/05/02 07:15:58;;;;;;;5.28;3.90;;;;;;;11.34;78.66;100894.63;6312417;22;20007;-73
2022/05/02 07:18:24;;;;;;;4.90;4.10;;;;;;;11.53;77.90;100902.47;6312033;22;20314;-73
2022/05/02 07:20:50;;;;;;;5.03;4.28;;;;;;;11.68;77.29;100894.41;6312348;22;20011;-74
2022/05/02 07:23:39;;;;;;;6.00;4.68;;;;;;;11.81;77.29;100898.63;6312582;22;20027;-72
2022/05/02 07:26:12;;;;;;;3.90;3.53;;;;;;;11.95;76.81;100904.50;6313900;22;20024;-73
2022/05/02 07:28:53;;;;;;;4.45;3.65;;;;;;;11.91;76.29;100895.09;6313038;22;20003;-72
2022/05/02 07:31:28;;;;;;;3.00;2.70;;;;;;;12.03;76.72;100906.75;6282863;22;19994;-73
2022/05/02 07:33:54;;;;;;;3.58;2.65;;;;;;;12.01;76.47;100894.38;6285001;22;20033;-72
2022/05/02 07:36:33;;;;;;;;;;;;;;;;;;;;;
2022/05/02 07:39:08;;;;;;;3.75;3.13;;;;;;;12.18;75.77;100896.97;6310812;22;20035;-71
2022/05/02 07:41:35;;;;;;;3.35;2.33;;;;;;;12.23;75.56;100899.72;6307145;22;20003;-74
2022/05/02 07:44:05;;;;;;;3.70;2.28;;;;;;;12.37;75.85;100911.88;6312054;22;20003;-73
2022/05/02 07:46:49;;;;;;;5.28;3.08;;;;;;;12.39;74.90;100908.88;6310592;22;20006;-73
2022/05/02 07:49:21;;;;;;;5.28;4.30;;;;;;;12.37;75.20;100917.34;6284440;22;20014;-73
2022/05/02 07:51:51;;;;;;;5.88;3.97;;;;;;;12.38;74.93;100916.28;6309846;22;20050;-72
2022/05/02 07:54:39;;;;;;;3.75;3.22;;;;;;;12.53;74.68;100917.44;6312848;22;20003;-72
2022/05/02 07:57:07;;;;;;;4.82;4.05;;;;;;;12.59;74.00;100924.59;6308740;22;20003;-73
2022/05/02 08:00:03;;;;;;;4.72;4.10;;;;;;;12.50;74.46;100921.53;6312008;22;20046;-73
2022/05/02 08:02:44;;;;;;;8.05;5.32;;;;;;;12.32;74.29;100936.50;6309703;22;20007;-73
2022/05/02 08:05:10;;;;;;;7.55;5.35;;;;;;;12.12;74.26;100919.94;6311161;22;20067;-72
2022/05/02 08:07:44;;;;;;;11.27;6.10;;;;;;;11.98;74.25;100917.66;6307447;22;20060;-71
2022/05/02 08:10:39;;;;;;;6.88;5.95;;;;;;;12.05;74.44;100931.97;6311094;22;20003;-71
2022/05/02 08:13:16;;;;;;;9.57;6.18;;;;;;;12.10;74.15;100933.09;6306637;22;20004;-73
2022/05/02 08:16:10;;;;;;;4.60;3.97;;;;;;;12.16;73.82;100940.25;6283827;22;20056;-73
2022/05/02 08:19:07;;;;;;;;;;;;;;;;;;;;;
2022/05/02 08:21:43;;;;;;;7.97;5.18;;;;;;;12.37;72.96;100905.56;6310778;22;20078;-72
2022/05/02 08:27:43;;;;;;;6.40;5.00;;;;;;;12.98;71.85;100924.22;6313992;22;20022;-72
2022/05/02 08:30:21;;;;;;;9.90;4.50;;;;;;;13.14;71.20;100927.81;6269238;22;20430;-72
2022/05/02 08:33:04;;;;;;;5.30;4.28;;;;;;;13.37;70.84;100928.44;6313620;22;20520;-72
2022/05/02 08:36:10;;;;;;;;;;;;;;;;;;;;;
2022/05/02 08:38:44;;;;;;;;;;;;;;;13.73;69.52;100945.78;6329944;22;19999;-71
2022/05/02 08:41:31;;;;;;;8.02;5.57;;;;;;;13.82;68.79;100939.75;6322465;22;19898;-73
2022/05/02 08:44:34;;;;;;;7.50;5.15;;;;;;;13.83;68.24;100941.38;6320004;22;20084;-73
2022/05/02 08:47:38;;;;;;;4.82;3.67;;;;;;;13.83;68.87;100938.63;6314954;22;20056;-73
2022/05/02 08:50:30;;;;;;;4.43;3.22;;;;;;;14.11;68.05;100918.81;6266582;22;20004;-73
2022/05/02 08:53:28;;;;;;;5.30;3.25;;;;;;;14.43;67.27;100939.63;6310588;22;20027;-71
2022/05/02 08:56:21;;;;;;;4.05;3.28;;;;;;;14.37;67.27;100948.16;6311405;22;20003;-73
2022/05/02 08:59:04;;;;;;;3.97;3.45;;;;;;;14.42;67.08;100943.47;6311152;22;20090;-70
2022/05/02 09:01:48;;;;;;;3.47;3.00;;;;;;;14.38;66.95;100942.38;6310641;22;20053;-71
2022/05/02 09:04:49;;;;;;;3.33;3.00;;;;;;;14.23;67.31;100923.19;6282408;22;20003;-72
2022/05/02 09:08:03;;;;;;;6.63;4.10;;;;;;;14.31;66.90;100937.19;6309402;22;20539;-72
2022/05/02 09:10:49;;;;;;;7.93;5.38;;;;;;;14.49;66.56;100955.03;6308399;22;20023;-72
2022/05/02 09:13:48;;;;;;;5.40;4.47;;;;;;;14.58;66.06;100946.22;6307669;22;19987;-71
2022/05/02 09:16:48;;;;;;;7.25;4.20;;;;;;;14.65;66.27;100955.03;6283762;22;19999;-71
2022/05/02 09:19:26;;;;;;;6.30;3.85;;;;;;;14.77;66.04;100954.69;6279743;22;20082;-72
2022/05/02 09:22:16;;;;;;;5.30;4.20;;;;;;;14.84;65.82;100956.03;6308881;22;20584;-72
2022/05/02 09:25:09;;;;;;;4.28;3.33;;;;;;;14.81;65.56;100962.09;6310082;22;20007;-72
2022/05/02 09:28:02;;;;;;;4.57;3.13;;;;;;;14.89;65.55;100957.94;6309958;22;20007;-71
2022/05/02 09:31:19;;;;;;;5.30;4.13;;;;;;;14.84;65.22;100952.47;6310707;22;20007;-73
2022/05/02 09:34:58;;;;;;;;;;;;;;;;;;;;;
2022/05/02 09:37:45;;;;;;;4.93;4.07;;;;;;;14.74;65.16;100928.56;6180636;23;20084;-74
2022/05/02 09:40:15;;;;;;;5.35;3.67;;;;;;;14.78;64.77;100929.63;6301012;22;19997;-72
2022/05/02 09:49:37;;;;;;;4.88;4.13;;;;;;;15.49;63.31;100957.91;6303433;22;20022;-73
2022/05/02 09:52:25;;;;;;;;;;;;;;;;;;;;;
2022/05/02 09:58:08;;;;;;;6.35;4.75;;;;;;;15.95;61.57;100950.41;6309708;22;20046;-73
2022/05/02 10:01:27;;;;;;;;;;;;;;;;;;;;;
2022/05/02 10:04:18;;;;;;;5.22;3.80;;;;;;;15.74;62.37;100972.63;6312302;22;20037;-72
2022/05/02 10:07:02;;;;;;;5.38;4.10;;;;;;;15.38;62.88;100961.81;6310457;22;20030;-73
2022/05/02 10:10:20;;;;;;;7.15;4.93;;;;;;;15.18;63.47;100971.84;6281690;22;20023;-73
2022/05/02 10:13:07;;;;;;;4.22;3.83;;;;;;;15.01;63.98;100971.41;6311017;22;20036;-73
2022/05/02 10:16:05;;;;;;;5.53;4.25;;;;;;;14.78;63.73;100951.66;6309369;22;20007;-72
2022/05/02 10:18:35;;;;;;;4.20;3.78;;;;;;;15.23;63.09;100961.91;6309194;22;19999;-72
2022/05/02 10:21:34;;;;;;;4.47;3.53;;;;;;;15.98;62.09;100945.13;6308009;22;20003;-72
2022/05/02 10:24:41;;;;;;;;;;;;;;;;;;;;;
2022/05/02 10:27:48;;;;;;;3.20;2.67;;;;;;;18.03;57.61;100945.53;6311570;22;20041;-74
2022/05/02 10:30:41;;;;;;;;;;;;;;;;;;;;;
2022/05/02 10:51:49;;;;;;;3.85;3.08;;;;;;;21.33;48.01;100928.06;5984344;23;20016;-75
2022/05/02 10:55:05;;;;;;;;;;;;;;;;;;;;;
2022/05/02 10:57:46;;;;;;;4.70;3.10;;;;;;;20.87;48.08;100954.53;6040761;23;20063;-74
2022/05/02 11:00:15;;;;;;;4.07;3.35;;;;;;;20.74;47.37;100942.38;6085075;23;20111;-75
2022/05/02 11:03:14;;;;;;;3.13;2.83;;;;;;;20.98;47.78;100961.41;6157590;23;20010;-73
2022/05/02 11:10:02;;;;;;;;;;;;;;;;;;;;;
2022/05/02 11:17:58;;;;;;;;;;;;;;;;;;;;;
2022/05/02 11:26:37;;;;;;;3.13;2.53;;;;;;;22.01;44.25;100941.47;6217717;23;20004;-74
2022/05/02 11:29:34;;;;;;;;;;;;;;;;;;;;;
2022/05/02 11:32:33;;;;;;;2.78;2.28;;;;;;;23.47;40.89;100933.84;6313841;22;20011;-75
2022/05/02 11:42:33;;;;;;;1.40;1.15;;;;;;;25.87;38.16;100933.63;6188421;23;20013;-75
2022/05/02 12:18:17;;;;;;;1.30;1.10;;;;;;;26.03;35.29;100938.47;5955091;23;20026;-75
2022/05/02 12:21:02;;;;;;;2.63;1.85;;;;;;;25.60;34.78;100941.69;5990987;23;20019;-75
2022/05/02 12:23:33;;;;;;;2.67;1.73;;;;;;;25.08;35.73;100909.75;6018781;23;20031;-77
2022/05/02 12:26:03;;;;;;;1.73;1.42;;;;;;;25.31;36.01;100942.84;6160354;23;20008;-74
2022/05/02 12:28:42;;;;;;;2.45;1.58;;;;;;;25.30;35.26;100940.38;6252275;23;20010;-76
2022/05/02 12:31:13;;;;;;;2.30;2.10;;;;;;;24.47;34.87;100935.75;6253117;22;20008;-77
2022/05/02 12:33:43;;;;;;;3.83;2.78;;;;;;;23.48;35.89;100924.31;6249355;23;20000;-76
2022/05/02 12:36:20;;;;;;;1.58;1.48;;;;;;;22.99;37.64;100921.22;6251942;23;20010;-76
2022/05/02 12:38:54;;;;;;;2.13;1.30;;;;;;;22.57;38.61;100924.72;6253553;22;19995;-74
2022/05/02 12:41:28;;;;;;;2.00;1.30;;;;;;;22.20;39.24;100923.56;6252647;23;20004;-76
2022/05/02 12:44:12;;;;;;;2.20;1.23;;;;;;;21.92;39.96;100926.75;6252426;23;20008;-75
2022/05/02 12:46:41;;;;;;;;;;;;;;;21.67;40.07;100925.63;6258664;22;20004;-79
2022/05/02 12:49:35;;;;;;;2.95;2.30;;;;;;;21.15;40.74;100916.13;6256345;23;19912;-77
2022/05/02 12:52:57;;;;;;;2.30;2.05;;;;;;;20.76;41.91;100909.53;6253643;23;20323;-76
2022/05/02 12:55:59;;;;;;;1.60;1.50;;;;;;;20.31;42.38;100910.50;6100447;23;20118;-75
2022/05/02 13:05:42;;;;;;;;;;;;;;;;;;;;;
2022/05/02 13:15:42;;;;;;;5.38;3.42;;;;;;;20.47;41.70;100912.84;6022291;23;20038;-80
2022/05/02 13:19:21;;;;;;;;;;;;;;;;;;;;;
2022/05/02 13:40:04;;;;;;;4.18;3.75;;;;;;;17.66;46.45;100902.97;5876827;24;20390;-75
2022/05/02 14:07:01;;;;;;;4.13;3.38;;;;;;;15.78;51.09;100863.41;5918141;24;20016;-79
2022/05/02 14:10:04;;;;;;;3.03;2.33;;;;;;;16.04;51.26;100899.00;6066985;23;20010;-76
2022/05/02 14:12:59;;;;;;;3.40;2.60;;;;;;;15.75;51.28;100863.94;6186127;23;20035;-77
2022/05/02 14:43:43;;;;;;;9.93;6.63;;;;;;;14.35;59.38;100865.91;6065039;23;20036;-76
2022/05/02 14:47:22;;;;;;;;;;;;;;;;;;;;;
2022/05/02 15:03:14;;;;;;;12.27;7.78;;;;;;;14.01;62.89;100885.81;5904423;24;20071;-72
2022/05/02 15:06:43;;;;;;;10.30;6.70;;;;;;;13.98;62.29;100883.63;5901857;24;20667;-71
2022/05/02 15:13:35;;;;;;;11.80;7.50;;;;;;;14.09;62.51;100884.41;5842839;24;20025;-78
2022/05/02 15:16:17;;;;;;;8.52;5.78;;;;;;;14.07;62.63;100884.69;5984817;24;20040;-78
2022/05/02 15:21:40;;;;;;;12.38;7.18;;;;;;;14.02;63.47;100870.13;6321225;22;20060;-82
2022/05/02 15:24:47;;;;;;;10.55;6.88;;;;;;;14.18;63.62;100888.28;6295579;22;20015;-80
2022/05/02 15:36:39;;;;;;;9.73;6.90;;;;;;;14.26;63.06;100884.13;6286205;22;20030;-79
2022/05/02 15:36:47;;;;;;;11.63;7.72;;;;;;;14.83;61.72;100888.34;6311870;22;20010;-75
2022/05/02 15:39:18;;;;;;;9.60;6.60;;;;;;;14.96;62.01;100886.03;6302573;22;20001;-73
2022/05/02 15:41:44;;;;;;;9.95;6.75;;;;;;;15.01;61.87;100900.63;6309792;22;20078;-75
2022/05/02 15:44:10;;;;;;;10.98;7.38;;;;;;;15.16;61.22;100885.91;6307526;22;20500;-74
2022/05/02 15:46:48;;;;;;;11.18;6.50;;;;;;;15.33;61.21;100885.53;6306233;22;20027;-74
2022/05/02 15:49:15;;;;;;;8.20;6.18;;;;;;;15.65;60.49;100877.81;6304589;22;20011;-74
2022/05/02 15:51:52;;;;;;;11.18;7.07;;;;;;;15.86;59.98;100887.59;6305667;22;20157;-74
2022/05/02 15:54:18;;;;;;;10.70;6.90;;;;;;;16.11;59.60;100877.41;6306429;22;20025;-75
2022/05/02 15:57:15;;;;;;;9.93;6.57;;;;;;;16.15;58.19;100850.06;6309653;22;20086;-73